Terminal Aerodrome Forecast
Issued by NWS

Home | Current Version | Previous Version | Text Only | Print | Product List | Glossary On
Versions: 1 2 3 4 5 6 7 8 9 10 11 12 13 14
000
FTUS45 KGGW 050500
TAFSDY
TAF
KSDY 050524Z 0506/0606 VRB04KT P6SM SCT210
     FM051200 21007KT P6SM BKN170
     FM051800 26014KT P6SM BKN150
     FM060000 27009KT P6SM BKN110
      AMD LTD TO CLD VIS AND WIND=

USA.gov is the U.S. government's official web portal to all federal, state and local government web resources and services.